• Join FlightAware (Why Join?)
  • Login
  • US Flag 
12:16PM EDT


 

Airport Tracker/Info


-or-


 

Live Flight TrackerFlight Track Log ✈ G-EZBG ✈ 08-Apr-2013 ✈ LIMC / MXP - LICC / CTA

Flight Track Log - Related Links

Times and Time Zones

All times are in EDT time to prevent confusion due to time zone crossing. See the G-EZBG flight status page for this flight to view local times or setup timezone preferences in your user account.

Time Position Orientation Groundspeed Altitude Reporting Facility
EDT Latitude Longitude Course Direction KTS MPH feet Rate Location/Type
01:01AM 44.8305 9.4397 148° Southeast  Level Estimated
01:02AM 44.7502 9.5098 148° Southeast  Level Estimated
01:03AM 44.6699 9.5796 148° Southeast  Level Estimated
01:04AM 44.5896 9.6493 148° Southeast  Level Estimated
01:05AM 44.5092 9.7188 148° Southeast  Level Estimated
01:06AM 44.4288 9.7881 148° Southeast  Level Estimated
01:07AM 44.3484 9.8572 148° Southeast  Level Estimated
01:07AM 45.6710 8.5210 148° Southeast 279 321 7,300  Level FlightAware
01:07AM 45.6730 8.4940 276° West 279 321 8,100 3,780 Climbing FlightAware
01:08AM 45.6660 8.4670 250° West 273 314 9,200 3,180 Climbing FlightAware
01:08AM 45.6260 8.4100 225° Southwest 300 345 11,300 2,640 Climbing FlightAware
01:09AM 45.5900 8.4050 186° South 323 372 12,300 2,820 Climbing FlightAware
01:09AM 45.5690 8.4170 158° South 328 377 13,200 3,180 Climbing FlightAware
01:09AM 45.5520 8.4380 139° Southeast 338 389 13,900 2,400 Climbing FlightAware
01:10AM 45.5100 8.5100 130° Southeast 364 419 15,400 2,700 Climbing FlightAware
01:11AM 45.4630 8.5950 128° Southeast 361 415 17,800 1,980 Climbing FlightAware
01:13AM 45.3128 8.7359 147° Southeast  Level Estimated
01:14AM 45.2323 8.8111 147° Southeast  Level Estimated
01:14AM 45.2150 8.9660 147° Southeast 400 460 23,900  Level FlightAware
01:15AM 45.1570 9.0460 136° Southeast 417 480 25,000 1,980 Climbing FlightAware
01:15AM 45.1030 9.1210 136° Southeast 414 476 26,600 1,800 Climbing FlightAware
01:16AM 45.0410 9.2070 136° Southeast 427 491 27,600 1,380 Climbing FlightAware
01:17AM 44.9840 9.2850 136° Southeast 435 501 28,600 1,380 Climbing FlightAware
01:18AM 44.9170 9.3770 136° Southeast 444 511 29,600 1,320 Climbing FlightAware
01:18AM 44.8560 9.4600 136° Southeast 450 518 30,500 1,320 Climbing FlightAware
01:19AM 44.7980 9.5400 136° Southeast 455 524 31,400 1,380 Climbing FlightAware
01:20AM 44.7360 9.6250 136° Southeast 456 525 32,400 1,620 Climbing FlightAware
01:20AM 44.6770 9.7040 136° Southeast 451 519 33,600 1,440 Climbing FlightAware
01:22AM 44.5080 9.9320 136° Southeast 446 513 36,200 1,200 Climbing FlightAware
01:23AM 44.4420 10.0210 136° Southeast 448 516 36,900 480 Climbing FlightAware
01:24AM 44.3730 10.1120 137° Southeast 455 524 37,000 60 Climbing FlightAware
01:24AM 44.3090 10.1980 136° Southeast 458 527 37,000  Level FlightAware
01:25AM 44.2480 10.2790 136° Southeast 458 527 37,000  Level FlightAware
01:26AM 44.1790 10.3700 137° Southeast 458 527 37,000  Level FlightAware
01:26AM 44.1180 10.4520 136° Southeast 459 528 37,000  Level FlightAware
01:29AM 43.9470 10.5849 151° Southeast  Level Estimated
01:30AM 43.8629 10.6500 151° Southeast  Level Estimated
01:31AM 43.7787 10.7149 151° Southeast  Level Estimated
01:32AM 43.6945 10.7796 151° Southeast  Level Estimated
01:33AM 43.6102 10.8442 151° Southeast  Level Estimated
01:33AM 43.4990 11.2600 151° Southeast 464 534 37,200  Level FlightAware
01:34AM 43.4330 11.3440 137° Southeast 457 526 38,100 960 Climbing FlightAware
01:35AM 43.3640 11.4330 137° Southeast 461 531 38,600 480 Climbing FlightAware
01:35AM 43.3000 11.5160 137° Southeast 466 536 38,800 300 Climbing FlightAware
01:36AM 43.2340 11.6010 137° Southeast 468 539 39,000 120 Climbing FlightAware
01:37AM 43.1630 11.6910 137° Southeast 470 541 39,000  Level FlightAware
01:37AM 43.0990 11.7730 137° Southeast 471 542 39,000  Level FlightAware
01:38AM 43.0260 11.8650 137° Southeast 471 542 39,000  Level FlightAware
01:39AM 42.9730 11.9330 137° Southeast 472 543 39,000  Level FlightAware
01:39AM 42.9010 12.0220 138° Southeast 472 543 39,000  Level FlightAware
01:40AM 42.8290 12.1130 137° Southeast 472 543 39,000  Level FlightAware
01:41AM 42.7650 12.1940 137° Southeast 472 543 39,000  Level FlightAware
01:42AM 42.6900 12.2870 138° Southeast 470 541 39,000  Level FlightAware
01:42AM 42.6300 12.3610 138° Southeast 471 542 39,000  Level FlightAware
01:43AM 42.5540 12.4550 138° Southeast 472 543 39,000  Level FlightAware
01:44AM 42.4930 12.5320 137° Southeast 472 543 39,000  Level FlightAware
01:44AM 42.4270 12.6130 138° Southeast 472 543 39,000  Level FlightAware
01:45AM 42.3560 12.7000 138° Southeast 472 543 39,000  Level FlightAware
01:46AM 42.2880 12.7730 142° Southeast 469 540 39,000  Level FlightAware
01:47AM 42.2050 12.8510 145° Southeast 470 541 39,000  Level FlightAware
01:47AM 42.1340 12.9180 145° Southeast 470 541 39,000  Level FlightAware
01:48AM 42.0640 12.9840 145° Southeast 470 541 39,000  Level FlightAware
01:49AM 41.9880 13.0550 145° Southeast 471 542 39,000  Level FlightAware
01:49AM 41.9240 13.1150 145° Southeast 470 541 39,000  Level FlightAware
01:50AM 41.8290 13.2040 145° Southeast 470 541 39,000  Level FlightAware
01:51AM 41.7570 13.2710 145° Southeast 470 541 39,000  Level FlightAware
01:51AM 41.6880 13.3340 146° Southeast 470 541 39,000  Level FlightAware
01:52AM 41.6080 13.4080 145° Southeast 470 541 39,000  Level FlightAware
01:53AM 41.5360 13.4740 146° Southeast 470 541 39,000  Level FlightAware
01:54AM 41.4550 13.5490 145° Southeast 468 539 39,000  Level FlightAware
01:54AM 41.3830 13.6150 145° Southeast 469 540 39,000  Level FlightAware
01:55AM 41.3110 13.6810 145° Southeast 470 541 39,000  Level FlightAware
01:56AM 41.2320 13.7500 147° Southeast 468 539 39,000  Level FlightAware
01:56AM 41.1550 13.8050 152° Southeast 467 537 39,000  Level FlightAware
01:57AM 41.0790 13.8600 151° Southeast 468 539 39,000  Level FlightAware
01:58AM 40.9940 13.9200 152° Southeast 468 539 39,000  Level FlightAware
01:58AM 40.9160 13.9760 152° Southeast 468 539 39,000  Level FlightAware
01:59AM 40.8320 14.0360 152° Southeast 470 541 39,000  Level FlightAware
02:00AM 40.7540 14.0910 152° Southeast 471 542 39,000  Level FlightAware
02:01AM 40.6660 14.1530 152° Southeast 471 542 39,000  Level FlightAware
02:01AM 40.5930 14.2050 152° Southeast 472 543 39,000  Level FlightAware
02:02AM 40.5130 14.2610 152° Southeast 472 543 39,000  Level FlightAware
02:03AM 40.4280 14.3210 152° Southeast 473 544 39,000  Level FlightAware
02:03AM 40.3520 14.3740 152° Southeast 474 545 39,000  Level FlightAware
02:04AM 40.2630 14.4360 152° Southeast 475 547 39,000  Level FlightAware
02:05AM 40.1850 14.4900 152° Southeast 475 547 39,000  Level FlightAware
02:05AM 40.1050 14.5450 152° Southeast 474 545 39,000  Level FlightAware
02:06AM 40.0220 14.6030 152° Southeast 473 544 39,000  Level FlightAware
02:07AM 39.9440 14.6560 152° Southeast 472 543 39,000  Level FlightAware
02:08AM 39.8520 14.7070 157° South 470 541 39,000  Level FlightAware
02:08AM 39.7710 14.7510 157° South 471 542 39,000  Level FlightAware
02:09AM 39.6910 14.7930 158° South 470 541 39,000  Level FlightAware
02:10AM 39.6030 14.8410 157° South 469 540 39,000  Level FlightAware
02:11AM 39.4940 14.9000 157° South 469 540 39,000  Level FlightAware
02:11AM 39.4290 14.9350 157° South 469 540 39,000  Level FlightAware
02:12AM 39.3330 14.9870 157° South 470 541 39,000  Level FlightAware
02:13AM 39.2190 15.0470 158° South 472 543 39,000 -360 Level FlightAware
02:14AM 39.1270 15.0950 158° South 472 543 38,400 -960 Descending FlightAware
02:15AM 38.9310 15.2000 157° South 476 548 36,800 -1,080 Descending FlightAware
02:16AM 38.8460 15.2450 158° South 481 554 36,100 -1,860 Descending FlightAware
02:17AM 38.7500 15.2950 158° South 485 558 34,200 -2,700 Descending FlightAware
02:17AM 38.6680 15.3380 158° South 482 555 32,300 -2,040 Descending FlightAware
02:18AM 38.5550 15.3970 158° South 471 542 30,800 -2,520 Descending FlightAware
02:19AM 38.4690 15.4420 158° South 486 559 28,100 -3,720 Descending FlightAware
02:20AM 38.3880 15.4840 158° South 486 559 25,900 -3,540 Descending FlightAware
02:20AM 38.2880 15.5360 158° South 478 550 23,100 -3,600 Descending FlightAware
02:21AM 38.2050 15.5790 158° South 473 544 20,800 -2,820 Descending FlightAware
02:22AM 38.1420 15.6120 158° South 437 503 19,600 -2,880 Descending FlightAware
02:23AM 38.0320 15.6650 159° South 409 471 16,300 -2,940 Descending FlightAware
02:23AM 37.9580 15.6960 162° South 375 432 14,500 -1,920 Descending FlightAware
02:24AM 37.8960 15.7230 161° South 345 397 13,800 -1,740 Descending FlightAware
02:25AM 37.8130 15.7590 161° South 343 395 11,900 -1,260 Descending FlightAware
02:26AM 37.7350 15.7920 161° South 294 338 11,500 -600 Descending FlightAware
02:27AM 37.6740 15.8180 161° South 259 298 10,900 -900 Descending FlightAware
02:28AM 37.6090 15.8450 162° South 264 304 10,000 -600 Descending FlightAware
02:28AM 37.5750 15.8290 200° South 228 262 10,000  Level FlightAware
02:29AM 37.5650 15.7900 252° West 217 250 10,000  Level FlightAware
02:30AM 37.5520 15.6960 260° West 223 257 10,000 -240 Level FlightAware
02:30AM 37.5470 15.6590 260° West 222 255 9,600 -1,320 Descending FlightAware
02:31AM 37.5420 15.6250 260° West 231 266 8,800 -1,980 Descending FlightAware
02:31AM 37.5370 15.5850 261° West 230 265 7,800 -1,740 Descending FlightAware
02:32AM 37.5320 15.5490 260° West 224 258 7,100 -1,560 Descending FlightAware
02:32AM 37.5310 15.5400 262° West 223 257 6,900 -1,680 Descending FlightAware
02:32AM 37.5240 15.4950 259° West 212 244 6,000 -1,440 Descending FlightAware
02:33AM 37.5210 15.4730 260° West 196 226 5,600 -1,020 Descending FlightAware
02:33AM 37.5170 15.4370 262° West 177 204 5,100 -1,020 Descending FlightAware
02:34AM 37.5130 15.4090 260° West 158 182 4,600 -600 Descending FlightAware
02:34AM 37.5100 15.3890 259° West 158 182 4,600  Level FlightAware
02:37AM 37.4752 15.1289 261° West  Level Estimated
02:38AM 37.4668 15.0664 260° West  Level Estimated
02:39AM 37.4668 15.0664 North  Level Estimated
02:40AM 37.4668 15.0664 North  Level Estimated
02:41AM 37.4668 15.0664 North  Level Estimated
02:42AM 37.4668 15.0664 North  Level Estimated
02:43AM 37.4668 15.0664 North  Level Estimated
02:44AM 37.4668 15.0664 North  Level Estimated
02:45AM 37.4668 15.0664 North  Level Estimated
02:46AM 37.4668 15.0664 North  Level Estimated
02:47AM 37.4668 15.0664 North  Level Estimated
02:48AM 37.4668 15.0664 North  Level Estimated
02:49AM 37.4668 15.0664 North  Level Estimated
02:50AM 37.4668 15.0664 North  Level Estimated